コモドロリバダビア の空港の天気 - METARとTAF

Comodoro Rivadavia Aerodrome ( SAVC / CRD ) - アルゼンチン チュブ州コモドロリバダビア
飛行場実況気象(Metar)
観測時間07/28 23:00 ART (07/29 02:00 UTC)
風向・風速西北西 6m/s
視程10km以上
天気現象
なし
気温9℃
湿度53%
気圧1021hPa
METARSAVC 290200Z 29011KT CAVOK 09/00 Q1021
過去の天気等 Google飛行場航空写真 Wunderground天気予報

過去48時間のMETAR

飛行場予報(TAF)
発表時間: 7/28 20:00 ART (7/28 23:00 UTC)
予報対象時間: 28日21時 ART ~ 29日21時 ART
風向・風速西北西 5m/s
視程10km以上
なし
29日12時 ART ~ 29日14時 ART に徐々に
風向・風速西北西 13m/s 瞬間風速 18m/s
視程10km以上
天気現象風塵
全天の4割程度の雲 雲底高度 910m
TAF SAVC 282300Z 2900/2924 29010KT CAVOK TX20/2918Z TN04/2905Z
BECMG 2915/2917 29025G35KT 9999 DU SCT030